Aérodrome :
LOGIN :

S'inscrire | Disclaimer

   EN    FR    IT 

 










Légende :    VFR   VFR Marginal   IFR   IFR Intensif   IFR Très Intensif
Visi : 
Plafond : 
>= 8 km
>= 3000ft
5 à 8 km
1000 à 3000 ft
1500m à 5 km
500 à 1000 ft
800 à 1500m
200 à 500 ft
< 800m
< 200 ft
Symboles :   Orages  Brouillard  Fortes neiges  Fortes précipitations  Vent > 20 kt
SIGMETs :   Divers  Orages  Givrage  Turbulence  Onde Orograph.  Cendres Volcan.






- Altitude de l'aérodrome : 885 ft
- Code IATA : BAS


LFSB - Bale-Mulhouse

DERNIER METAR :
  • 202230Z AUTO 18007KT CAVOK 03/M01 Q1003 NOSIG

METARs EXPIRÉS :
  • 202200Z AUTO 16010KT CAVOK 03/M01 Q1003 NOSIG
  • 202130Z AUTO 18007KT 150V230 CAVOK 03/M01 Q1004 NOSIG
  • 202100Z AUTO 19007KT CAVOK 04/M01 Q1004 NOSIG
  • 202030Z AUTO 19004KT 150V240 CAVOK 01/M02 Q1004 NOSIG
  • 202000Z AUTO VRB02KT CAVOK 01/M01 Q1004 NOSIG

TAF TAF LFSB
Valide du 20 à 18h jusqu'au 21 à 18h UTC


201701Z 2018/2118 15006KT CAVOK
BECMG 2103/2106 21010KT
PROB40
TEMPO 2106/2112 22015G25KT
TEMPO 2109/2118 -RA
Météo : +33 3 89 90 31 11



MET'MAP, la Météo Aéronautique d'un coup d'oeil ! - Copyright ORBIFLY Décembre 2007 - Disclaimer

ORBIFLY MET'MAP TEAM :

Programmation & Développement : Alexandra Zaïnal
Sur une idée originale de : Baudouin d'Aumeries
Assistance à la programmation : Marc-Olivier Méhu
Soutien technique & logistique : Manuel Goepfert

Contact : metmap@orbifly.com




SOURCES & CREDITS :

   NOAA